Main page
METAR-TAF:

METAR-TAF

Airports :

Doha, Qatar

Doha International Airport

latitude: 25-15-40N, longitude: 051-33-54E, elevation: 11 m

Current weather observation

The report was made 23 minutes ago, at 19:00 UTC
Wind 5 kt from the North/Northwest
Temperature 30°C
Humidity 46%
Pressure 1009 hPa
Visibility 10 km or more
no clouds below 1500 m and no cumulonimbus

METAR: OTBD 211900Z 33005KT CAVOK 30/17 Q1009 NOSIG

Time: 22:23 (19:23 UTC)

Forecast

The report was made 2 hours and 26 minutes ago, at 16:57 UTC
Forecast valid from 21 at 18 UTC to 22 at 24 UTC
Wind 4 kt from the West/Northwest
Visibility 10 km or more
no clouds below 1500 m and no cumulonimbus
Temporary
from 22 at 10 UTC to 22 at 13 UTC
Wind 8 kt from the North/Northeast

TAF: OTBD 211657Z 2118/2224 30004KT CAVOK TEMPO 2210/2213 02008KT

Weather observations and forecasts of more than 4000 airports (METAR and TAF reports).

The available stations are represented by yellow and red dots on the map.

Hover mouse over dot to see the name of the station.

Then click to see weather observations and forecasts.

To change the map : click on the green buttons with a black cross to zoom in, on the green button with a dash to zoom out, or on the green arrows for adjacent maps.


METAR-TAF: